createdAt,value
2022-12-23T00:00:18.147Z,7.4
2022-12-23T00:01:19.283Z,7.4
2022-12-23T00:02:20.591Z,7.4
2022-12-23T00:03:22.412Z,7.4
2022-12-23T00:04:24.437Z,7.4
2022-12-23T00:05:26.313Z,7.4
2022-12-23T00:06:36.068Z,7.4
2022-12-23T00:07:37.480Z,7.4
2022-12-23T00:08:38.633Z,7.4
2022-12-23T00:09:39.888Z,7.4
2022-12-23T00:10:41.287Z,7.4
2022-12-23T00:11:42.189Z,7.4
2022-12-23T00:12:43.602Z,7.4
2022-12-23T00:13:44.753Z,7.4
2022-12-23T00:14:45.684Z,7.4
2022-12-23T00:15:46.833Z,7.4
2022-12-23T00:16:48.335Z,7.5
2022-12-23T00:17:49.848Z,7.5
2022-12-23T00:18:51.019Z,7.5
2022-12-23T00:19:52.437Z,7.5
2022-12-23T00:20:54.168Z,7.5
2022-12-23T00:21:55.583Z,7.5
2022-12-23T00:22:56.722Z,7.5
2022-12-23T00:23:57.856Z,7.5
2022-12-23T00:24:58.710Z,7.5
2022-12-23T00:26:00.140Z,7.5
2022-12-23T00:27:01.582Z,7.5
2022-12-23T00:28:02.445Z,7.5
2022-12-23T00:29:03.423Z,7.5
2022-12-23T00:30:04.922Z,7.5
2022-12-23T00:31:06.310Z,7.5
2022-12-23T00:32:07.821Z,7.5
2022-12-23T00:33:09.321Z,7.5
2022-12-23T00:34:10.722Z,7.5
2022-12-23T00:35:11.380Z,7.5
2022-12-23T00:36:12.994Z,7.5
2022-12-23T00:37:14.615Z,7.5
2022-12-23T00:38:16.006Z,7.5
2022-12-23T00:39:17.416Z,7.5
2022-12-23T00:40:18.841Z,7.5
2022-12-23T00:41:19.692Z,7.5
2022-12-23T00:42:20.831Z,7.5
2022-12-23T00:43:22.013Z,7.5
2022-12-23T00:44:23.588Z,7.5
2022-12-23T00:45:24.764Z,7.5
2022-12-23T00:46:26.249Z,7.5
2022-12-23T00:47:28.061Z,7.5
2022-12-23T00:48:28.948Z,7.5
2022-12-23T00:49:30.364Z,7.5
2022-12-23T00:50:31.566Z,7.5
2022-12-23T00:51:32.742Z,7.5
2022-12-23T00:52:33.937Z,7.4
2022-12-23T00:53:35.112Z,7.4
2022-12-23T00:54:36.526Z,7.4
2022-12-23T00:55:37.664Z,7.4
2022-12-23T00:56:39.170Z,7.4
2022-12-23T00:57:40.314Z,7.4
2022-12-23T00:58:41.714Z,7.5
2022-12-23T00:59:43.159Z,7.4
2022-12-23T01:00:44.378Z,7.4
2022-12-23T01:01:46.142Z,7.4
2022-12-23T01:02:48.173Z,7.4
2022-12-23T01:03:50.069Z,7.5
2022-12-23T01:04:51.279Z,7.5
2022-12-23T01:05:52.422Z,7.4
2022-12-23T01:06:53.805Z,7.5
2022-12-23T01:07:54.714Z,7.5
2022-12-23T01:08:56.113Z,7.5
2022-12-23T01:09:57.253Z,7.5
2022-12-23T01:10:58.665Z,7.5
2022-12-23T01:11:59.853Z,7.5
2022-12-23T01:13:01.788Z,7.5
2022-12-23T01:14:02.648Z,7.5
2022-12-23T01:15:04.100Z,7.5
2022-12-23T01:16:05.256Z,7.5
2022-12-23T01:17:15.390Z,7.5
2022-12-23T01:18:17.335Z,7.6
2022-12-23T01:20:34.087Z,7.6
2022-12-23T01:21:35.221Z,7.5
2022-12-23T01:22:36.354Z,7.5
2022-12-23T01:23:37.789Z,7.5
2022-12-23T01:24:38.910Z,7.5
2022-12-23T01:25:40.322Z,7.5
2022-12-23T01:26:41.735Z,7.5
2022-12-23T01:27:43.149Z,7.5
2022-12-23T01:28:44.586Z,7.5
2022-12-23T01:29:45.698Z,7.5
2022-12-23T01:30:48.033Z,7.5
2022-12-23T01:31:49.202Z,7.5
2022-12-23T01:32:50.481Z,7.5
2022-12-23T01:33:51.624Z,7.5
2022-12-23T01:34:52.753Z,7.5
2022-12-23T01:35:53.891Z,7.6
2022-12-23T01:36:55.069Z,7.6
2022-12-23T01:37:56.266Z,7.6
2022-12-23T01:38:57.672Z,7.6
2022-12-23T01:39:59.098Z,7.5
2022-12-23T01:41:00.211Z,7.5
2022-12-23T01:42:00.842Z,7.5
2022-12-23T01:43:02.257Z,7.5
2022-12-23T01:44:03.683Z,7.5
2022-12-23T01:45:04.519Z,7.5
2022-12-23T01:46:06.135Z,7.5
2022-12-23T01:47:07.598Z,7.5
2022-12-23T01:48:08.728Z,7.5
2022-12-23T01:49:09.686Z,7.6
2022-12-23T01:50:11.084Z,7.5
2022-12-23T01:51:12.219Z,7.6
2022-12-23T01:52:13.634Z,7.5
2022-12-23T01:53:14.625Z,7.5
2022-12-23T01:54:15.785Z,7.5
2022-12-23T01:55:17.182Z,7.5
2022-12-23T01:56:18.596Z,7.5
2022-12-23T01:57:19.449Z,7.5
2022-12-23T01:58:20.310Z,7.5
2022-12-23T01:59:21.171Z,7.5
2022-12-23T02:00:22.096Z,7.5
2022-12-23T02:01:23.591Z,7.5
2022-12-23T02:02:25.343Z,7.5
2022-12-23T02:03:27.145Z,7.5
2022-12-23T02:04:28.412Z,7.5
2022-12-23T02:05:29.572Z,7.5
2022-12-23T02:06:30.722Z,7.5
2022-12-23T02:07:32.140Z,7.5
2022-12-23T02:08:33.581Z,7.4
2022-12-23T02:09:34.497Z,7.4
2022-12-23T02:10:35.660Z,7.4
2022-12-23T02:11:36.836Z,7.4
2022-12-23T02:12:37.962Z,7.4
2022-12-23T02:13:39.143Z,7.4
2022-12-23T02:14:40.423Z,7.3
2022-12-23T02:15:41.281Z,7.3
2022-12-23T02:16:42.742Z,7.3
2022-12-23T02:17:44.154Z,7.3
2022-12-23T02:18:45.581Z,7.3
2022-12-23T02:19:46.779Z,7.3
2022-12-23T02:20:47.898Z,7.3
2022-12-23T02:21:49.302Z,7.3
2022-12-23T02:22:51.079Z,7.3
2022-12-23T02:23:52.238Z,7.3
2022-12-23T02:24:53.671Z,7.3
2022-12-23T02:25:55.070Z,7.3
2022-12-23T02:26:56.202Z,7.2
2022-12-23T02:27:57.618Z,7.2
2022-12-23T02:28:59.038Z,7.2
2022-12-23T02:30:00.219Z,7.2
2022-12-23T02:31:01.633Z,7.2
2022-12-23T02:32:03.269Z,7.2
2022-12-23T02:33:04.714Z,7.2
2022-12-23T02:34:05.630Z,7.2
2022-12-23T02:35:06.845Z,7.2
2022-12-23T02:36:08.238Z,7.2
2022-12-23T02:37:09.381Z,7.2
2022-12-23T02:38:10.783Z,7.2
2022-12-23T02:39:12.217Z,7.2
2022-12-23T02:40:13.348Z,7.2
2022-12-23T02:41:13.957Z,7.3
2022-12-23T02:42:14.859Z,7.3
2022-12-23T02:43:16.011Z,7.2
2022-12-23T02:44:17.127Z,7.3
2022-12-23T02:45:18.560Z,7.3
2022-12-23T02:46:19.816Z,7.3
2022-12-23T02:47:21.239Z,7.3
2022-12-23T02:48:22.121Z,7.3
2022-12-23T02:49:23.256Z,7.3
2022-12-23T02:50:24.687Z,7.3
2022-12-23T02:51:26.088Z,7.3
2022-12-23T02:52:27.502Z,7.3
2022-12-23T02:53:28.687Z,7.3
2022-12-23T02:54:30.101Z,7.3
2022-12-23T02:55:30.980Z,7.3
2022-12-23T02:56:32.372Z,7.4
2022-12-23T02:57:33.230Z,7.4
2022-12-23T02:58:34.411Z,7.4
2022-12-23T02:59:35.580Z,7.4
2022-12-23T03:00:36.748Z,7.4
2022-12-23T03:01:38.021Z,7.4
2022-12-23T03:02:40.079Z,7.4
2022-12-23T03:03:42.113Z,7.4
2022-12-23T03:04:43.964Z,7.4
2022-12-23T03:05:45.120Z,7.5
2022-12-23T03:06:45.996Z,7.5
2022-12-23T03:07:47.414Z,7.5
2022-12-23T03:08:48.544Z,7.5
2022-12-23T03:09:49.178Z,7.5
2022-12-23T03:10:50.588Z,7.5
2022-12-23T03:11:52.002Z,7.5
2022-12-23T03:12:53.412Z,7.5
2022-12-23T03:13:54.581Z,7.6
2022-12-23T03:14:55.993Z,7.6
2022-12-23T03:15:57.468Z,7.6
2022-12-23T03:16:59.100Z,7.6
2022-12-23T03:18:00.260Z,7.6
2022-12-23T03:19:01.653Z,7.7
2022-12-23T03:20:03.064Z,7.7
2022-12-23T03:21:04.498Z,7.7
2022-12-23T03:22:05.894Z,7.7
2022-12-23T03:23:07.033Z,7.7
2022-12-23T03:24:08.203Z,7.8
2022-12-23T03:25:09.619Z,7.8
2022-12-23T03:26:10.495Z,7.8
2022-12-23T03:27:11.899Z,7.8
2022-12-23T03:28:13.332Z,7.8
2022-12-23T03:29:14.721Z,7.8
2022-12-23T03:30:15.859Z,7.8
2022-12-23T03:31:17.327Z,7.9
2022-12-23T03:32:18.571Z,7.9
2022-12-23T03:33:20.010Z,7.9
2022-12-23T03:34:21.403Z,7.9
2022-12-23T03:35:22.307Z,7.9
2022-12-23T03:36:23.743Z,8
2022-12-23T03:37:24.892Z,8
2022-12-23T03:38:26.307Z,8
2022-12-23T03:39:27.723Z,8
2022-12-23T03:40:29.113Z,8.1
2022-12-23T03:41:30.530Z,8.1
2022-12-23T03:42:31.934Z,8.1
2022-12-23T03:43:33.349Z,8.1
2022-12-23T03:44:34.485Z,8.1
2022-12-23T03:45:39.018Z,8.1
2022-12-23T03:46:42.424Z,8.2
2022-12-23T03:47:43.695Z,8.2
2022-12-23T03:48:44.919Z,8.2
2022-12-23T03:49:45.811Z,8.2
2022-12-23T03:50:46.943Z,8.2
2022-12-23T03:51:48.087Z,8.2
2022-12-23T03:52:48.982Z,8.2
2022-12-23T03:53:50.163Z,8.3
2022-12-23T03:54:51.291Z,8.3
2022-12-23T03:55:52.203Z,8.3
2022-12-23T03:56:53.389Z,8.3
2022-12-23T03:57:54.796Z,8.3
2022-12-23T03:58:55.931Z,8.3
2022-12-23T03:59:56.794Z,8.3
2022-12-23T04:00:57.944Z,8.3
2022-12-23T04:01:58.955Z,8.3
2022-12-23T04:03:00.859Z,8.4
2022-12-23T04:04:02.934Z,8.4
2022-12-23T04:05:03.969Z,8.4
2022-12-23T04:06:05.097Z,8.4
2022-12-23T04:07:06.256Z,8.4
2022-12-23T04:08:07.402Z,8.4
2022-12-23T04:09:08.582Z,8.4
2022-12-23T04:10:09.723Z,8.4
2022-12-23T04:11:10.479Z,8.4
2022-12-23T04:12:11.913Z,8.4
2022-12-23T04:13:12.782Z,8.4
2022-12-23T04:14:14.203Z,8.4
2022-12-23T04:15:15.094Z,8.5
2022-12-23T04:16:16.310Z,8.5
2022-12-23T04:17:17.927Z,8.5
2022-12-23T04:18:19.319Z,8.5
2022-12-23T04:19:20.481Z,8.5
2022-12-23T04:20:21.881Z,8.5
2022-12-23T04:21:23.280Z,8.5
2022-12-23T04:22:24.473Z,8.5
2022-12-23T04:23:25.875Z,8.4
2022-12-23T04:24:27.024Z,8.4
2022-12-23T04:25:28.425Z,8.4
2022-12-23T04:26:29.560Z,8.4
2022-12-23T04:27:30.823Z,8.4
2022-12-23T04:28:31.939Z,8.4
2022-12-23T04:29:33.358Z,8.4
2022-12-23T04:30:35.044Z,8.4
2022-12-23T04:31:36.444Z,8.4
2022-12-23T04:32:38.463Z,8.4
2022-12-23T04:33:39.625Z,8.4
2022-12-23T04:34:41.080Z,8.4
2022-12-23T04:35:42.221Z,8.4
2022-12-23T04:36:43.636Z,8.4
2022-12-23T04:37:45.070Z,8.4
2022-12-23T04:38:46.467Z,8.4
2022-12-23T04:39:47.877Z,8.4
2022-12-23T04:40:49.016Z,8.4
2022-12-23T04:41:50.429Z,8.4
2022-12-23T04:42:51.866Z,8.4
2022-12-23T04:43:53.666Z,8.4
2022-12-23T04:44:55.105Z,8.4
2022-12-23T04:45:56.243Z,8.4
2022-12-23T04:46:57.149Z,8.4
2022-12-23T04:47:58.938Z,8.4
2022-12-23T04:49:00.097Z,8.4
2022-12-23T04:50:01.016Z,8.4
2022-12-23T04:51:02.405Z,8.4
2022-12-23T04:52:03.539Z,8.4
2022-12-23T04:53:04.681Z,8.4
2022-12-23T04:54:05.881Z,8.4
2022-12-23T04:55:07.011Z,8.4
2022-12-23T04:56:08.423Z,8.4
2022-12-23T04:57:09.598Z,8.5
2022-12-23T04:58:11.019Z,8.5
2022-12-23T04:59:12.429Z,8.5
2022-12-23T05:00:13.841Z,8.5
2022-12-23T05:01:15.004Z,8.5
2022-12-23T05:02:16.801Z,8.5
2022-12-23T05:03:18.455Z,8.5
2022-12-23T05:04:20.366Z,8.5
2022-12-23T05:05:21.718Z,8.5
2022-12-23T05:06:23.106Z,8.5
2022-12-23T05:07:24.524Z,8.5
2022-12-23T05:08:25.949Z,8.5
2022-12-23T05:09:26.840Z,8.5
2022-12-23T05:10:27.978Z,8.5
2022-12-23T05:11:28.900Z,8.5
2022-12-23T05:12:29.823Z,8.5
2022-12-23T05:13:30.993Z,8.6
2022-12-23T05:14:31.848Z,8.5
2022-12-23T05:15:32.475Z,8.6
2022-12-23T05:16:33.957Z,8.6
2022-12-23T05:17:35.701Z,8.6
2022-12-23T05:18:36.881Z,8.6
2022-12-23T05:19:37.503Z,8.6
2022-12-23T05:20:38.954Z,8.6
2022-12-23T05:21:39.818Z,8.6
2022-12-23T05:22:40.958Z,8.6
2022-12-23T05:23:42.380Z,8.6
2022-12-23T05:24:43.500Z,8.6
2022-12-23T05:25:44.689Z,8.6
2022-12-23T05:26:47.926Z,8.6
2022-12-23T05:28:00.645Z,8.6
2022-12-23T05:29:02.116Z,8.6
2022-12-23T05:30:03.221Z,8.6
2022-12-23T05:31:04.151Z,8.6
2022-12-23T05:32:05.779Z,8.6
2022-12-23T05:33:07.072Z,8.6
2022-12-23T05:34:08.705Z,8.6
2022-12-23T05:35:10.220Z,8.6
2022-12-23T05:36:11.668Z,8.6
2022-12-23T05:37:12.815Z,8.6
2022-12-23T05:38:14.231Z,8.6
2022-12-23T05:39:15.380Z,8.6
2022-12-23T05:40:20.002Z,8.6
2022-12-23T05:41:33.818Z,8.6
2022-12-23T05:42:35.237Z,8.6
2022-12-23T05:43:36.397Z,8.5
2022-12-23T05:44:37.786Z,8.5
2022-12-23T05:45:38.999Z,8.5
2022-12-23T05:46:40.755Z,8.5
2022-12-23T05:47:42.664Z,8.5
2022-12-23T05:48:44.095Z,8.5
2022-12-23T05:49:45.212Z,8.5
2022-12-23T05:50:46.627Z,8.5
2022-12-23T05:51:48.348Z,8.5
2022-12-23T05:52:49.739Z,8.5
2022-12-23T05:53:51.165Z,8.5
2022-12-23T05:54:52.338Z,8.5
2022-12-23T05:55:53.763Z,8.5
2022-12-23T05:56:54.895Z,8.5
2022-12-23T05:57:56.067Z,8.5
2022-12-23T05:58:57.268Z,8.5
2022-12-23T05:59:58.384Z,8.5
2022-12-23T06:00:59.802Z,8.5
2022-12-23T06:02:01.408Z,8.5
2022-12-23T06:03:03.752Z,8.5
2022-12-23T06:04:05.804Z,8.5
2022-12-23T06:05:07.772Z,8.5
2022-12-23T06:06:08.679Z,8.5
2022-12-23T06:07:09.895Z,8.5
2022-12-23T06:08:10.804Z,8.5
2022-12-23T06:09:12.223Z,8.5
2022-12-23T06:10:13.631Z,8.5
2022-12-23T06:11:14.831Z,8.5
2022-12-23T06:12:15.957Z,8.5
2022-12-23T06:13:17.086Z,8.5
2022-12-23T06:14:20.445Z,8.5
2022-12-23T06:15:30.259Z,8.5
2022-12-23T06:16:31.488Z,8.5
2022-12-23T06:17:32.990Z,8.5
2022-12-23T06:18:34.145Z,8.5
2022-12-23T06:19:35.285Z,8.5
2022-12-23T06:20:36.691Z,8.6
2022-12-23T06:21:37.868Z,8.6
2022-12-23T06:22:39.307Z,8.6
2022-12-23T06:23:40.697Z,8.6
2022-12-23T06:24:42.141Z,8.6
2022-12-23T06:25:42.998Z,8.6
2022-12-23T06:26:43.899Z,8.6
2022-12-23T06:27:45.316Z,8.6
2022-12-23T06:28:46.500Z,8.6
2022-12-23T06:29:47.904Z,8.6
2022-12-23T06:30:48.804Z,8.6
2022-12-23T06:31:50.057Z,8.6
2022-12-23T06:32:51.895Z,8.6
2022-12-23T06:33:53.077Z,8.6
2022-12-23T06:34:53.952Z,8.6
2022-12-23T06:35:55.368Z,8.7
2022-12-23T06:36:56.509Z,8.7
2022-12-23T06:37:57.472Z,8.7
2022-12-23T06:38:58.868Z,8.7
2022-12-23T06:39:59.714Z,8.7
2022-12-23T06:41:01.135Z,8.7
2022-12-23T06:42:02.543Z,8.7
2022-12-23T06:43:03.954Z,8.7
2022-12-23T06:44:05.106Z,8.7
2022-12-23T06:45:06.000Z,8.7
2022-12-23T06:46:06.960Z,8.7
2022-12-23T06:47:08.789Z,8.7
2022-12-23T06:48:10.199Z,8.7
2022-12-23T06:49:13.573Z,8.7
2022-12-23T06:50:15.349Z,8.8
2022-12-23T06:51:16.251Z,8.8
2022-12-23T06:52:17.384Z,8.8
2022-12-23T06:53:18.893Z,8.8
2022-12-23T06:54:20.308Z,8.8
2022-12-23T06:55:21.198Z,8.8
2022-12-23T06:56:22.058Z,8.8
2022-12-23T06:57:23.295Z,8.8
2022-12-23T06:58:24.678Z,8.8
2022-12-23T06:59:26.104Z,8.8
2022-12-23T07:00:27.505Z,8.8
2022-12-23T07:01:28.494Z,8.8
2022-12-23T07:02:30.691Z,8.8
2022-12-23T07:03:32.500Z,8.8
2022-12-23T07:04:34.288Z,8.8
2022-12-23T07:05:37.509Z,8.8
2022-12-23T07:06:39.065Z,8.8
2022-12-23T07:07:40.227Z,8.8
2022-12-23T07:08:41.707Z,8.8
2022-12-23T07:09:42.545Z,8.8
2022-12-23T07:10:43.948Z,8.9
2022-12-23T07:11:44.807Z,8.9
2022-12-23T07:12:50.652Z,8.9
2022-12-23T07:13:51.726Z,8.9
2022-12-23T07:14:52.861Z,8.9
2022-12-23T07:15:54.319Z,8.9
2022-12-23T07:16:55.488Z,8.9
2022-12-23T07:17:57.020Z,8.9
2022-12-23T07:18:57.878Z,8.9
2022-12-23T07:21:18.002Z,8.9
2022-12-23T07:22:30.843Z,8.9
2022-12-23T07:23:32.028Z,9
2022-12-23T07:24:33.491Z,8.9
2022-12-23T07:25:34.879Z,9
2022-12-23T07:26:36.286Z,9
2022-12-23T07:27:37.424Z,9
2022-12-23T07:28:38.831Z,9
2022-12-23T07:29:40.255Z,9
2022-12-23T07:30:41.667Z,9
2022-12-23T07:31:42.897Z,9
2022-12-23T07:32:44.433Z,9
2022-12-23T07:33:45.857Z,9
2022-12-23T07:34:47.271Z,9
2022-12-23T07:35:48.676Z,9
2022-12-23T07:36:50.094Z,9
2022-12-23T07:37:51.504Z,9
2022-12-23T07:38:52.925Z,9
2022-12-23T07:39:54.366Z,9
2022-12-23T07:40:55.466Z,9
2022-12-23T07:42:09.264Z,9
2022-12-23T07:43:47.287Z,9
2022-12-23T07:44:48.187Z,9
2022-12-23T07:45:54.046Z,9
2022-12-23T07:47:02.027Z,9
2022-12-23T07:48:03.407Z,9
2022-12-23T07:49:04.541Z,9
2022-12-23T07:50:05.971Z,8.9
2022-12-23T07:51:07.377Z,9
2022-12-23T07:52:08.587Z,9
2022-12-23T07:53:09.822Z,9
2022-12-23T07:54:11.248Z,9
2022-12-23T07:55:12.697Z,9
2022-12-23T07:56:14.075Z,9
2022-12-23T07:57:15.494Z,9
2022-12-23T07:58:16.625Z,8.9
2022-12-23T07:59:17.764Z,8.9
2022-12-23T08:00:18.903Z,8.9
2022-12-23T08:01:19.801Z,8.9
2022-12-23T08:02:21.428Z,8.9
2022-12-23T08:03:23.316Z,8.9
2022-12-23T08:04:24.948Z,8.9
2022-12-23T08:05:26.584Z,8.9
2022-12-23T08:06:28.411Z,8.9
2022-12-23T08:07:29.807Z,8.9
2022-12-23T08:08:31.019Z,8.8
2022-12-23T08:09:32.477Z,8.8
2022-12-23T08:10:33.668Z,8.8
2022-12-23T08:11:34.816Z,8.8
2022-12-23T08:12:36.241Z,8.9
2022-12-23T08:13:37.650Z,8.8
2022-12-23T08:14:38.787Z,8.8
2022-12-23T08:15:40.193Z,8.8
2022-12-23T08:16:44.084Z,8.8
2022-12-23T08:17:46.039Z,8.8
2022-12-23T08:18:47.212Z,8.8
2022-12-23T08:19:48.630Z,8.9
2022-12-23T08:20:50.002Z,8.9
2022-12-23T08:21:51.417Z,8.9
2022-12-23T08:22:52.554Z,8.9
2022-12-23T08:23:53.967Z,8.9
2022-12-23T08:24:55.112Z,8.9
2022-12-23T08:25:56.268Z,8.9
2022-12-23T08:26:56.862Z,9
2022-12-23T08:27:58.272Z,9
2022-12-23T08:28:59.685Z,9
2022-12-23T08:30:00.834Z,9
2022-12-23T08:31:02.067Z,9
2022-12-23T08:32:03.281Z,9
2022-12-23T08:33:04.704Z,9
2022-12-23T08:34:05.912Z,9
2022-12-23T08:35:07.332Z,8.9
2022-12-23T08:36:08.741Z,8.9
2022-12-23T08:37:09.912Z,8.9
2022-12-23T08:38:11.047Z,8.9
2022-12-23T08:39:12.468Z,8.9
2022-12-23T08:40:13.887Z,8.9
2022-12-23T08:41:15.331Z,9
2022-12-23T08:42:16.426Z,9
2022-12-23T08:43:17.042Z,9
2022-12-23T08:44:18.487Z,9
2022-12-23T08:45:19.659Z,9
2022-12-23T08:46:21.129Z,9
2022-12-23T08:47:22.536Z,9
2022-12-23T08:48:23.951Z,9
2022-12-23T08:49:25.086Z,9
2022-12-23T08:50:26.246Z,9
2022-12-23T08:51:27.635Z,9
2022-12-23T08:52:29.050Z,9
2022-12-23T08:53:30.469Z,9
2022-12-23T08:54:31.657Z,9
2022-12-23T08:55:32.563Z,9
2022-12-23T08:56:34.097Z,9
2022-12-23T08:57:35.207Z,9
2022-12-23T08:58:36.625Z,9
2022-12-23T08:59:38.038Z,9
2022-12-23T09:00:39.458Z,9
2022-12-23T09:01:40.982Z,9.1
2022-12-23T09:02:42.382Z,9.1
2022-12-23T09:03:44.781Z,9.1
2022-12-23T09:04:46.438Z,9.1
2022-12-23T09:05:47.830Z,9.1
2022-12-23T09:06:48.733Z,9.1
2022-12-23T09:07:49.590Z,9.1
2022-12-23T09:08:51.006Z,9.1
2022-12-23T09:09:51.936Z,9.1
2022-12-23T09:10:53.052Z,9.1
2022-12-23T09:11:54.214Z,9.1
2022-12-23T09:12:57.939Z,9.1
2022-12-23T09:13:59.575Z,9.1
2022-12-23T09:15:01.041Z,9.1
2022-12-23T09:16:02.214Z,9.1
2022-12-23T09:17:04.010Z,9.2
2022-12-23T09:18:05.424Z,9.2
2022-12-23T09:19:06.838Z,9.2
2022-12-23T09:20:07.774Z,9.2
2022-12-23T09:21:09.178Z,9.2
2022-12-23T09:22:10.573Z,9.2
2022-12-23T09:23:11.808Z,9.2
2022-12-23T09:24:13.010Z,9.2
2022-12-23T09:25:14.271Z,9.3
2022-12-23T09:26:15.655Z,9.3
2022-12-23T09:27:16.593Z,9.3
2022-12-23T09:28:17.726Z,9.3
2022-12-23T09:29:19.151Z,9.3
2022-12-23T09:30:20.303Z,9.4
2022-12-23T09:31:21.290Z,9.4
2022-12-23T09:32:22.774Z,9.4
2022-12-23T09:33:23.955Z,9.4
2022-12-23T09:34:25.109Z,9.4
2022-12-23T09:35:26.249Z,9.4
2022-12-23T09:36:27.371Z,9.3
2022-12-23T09:37:28.568Z,9.4
2022-12-23T09:38:29.696Z,9.4
2022-12-23T09:39:31.132Z,9.4
2022-12-23T09:40:32.344Z,9.4
2022-12-23T09:41:33.476Z,9.4
2022-12-23T09:42:34.903Z,9.4
2022-12-23T09:43:35.838Z,9.5
2022-12-23T09:44:37.032Z,9.4
2022-12-23T09:45:40.609Z,9.4
2022-12-23T09:46:41.842Z,9.4
2022-12-23T09:47:43.545Z,9.4
2022-12-23T09:48:44.974Z,9.4
2022-12-23T09:49:46.193Z,9.4
2022-12-23T09:50:47.624Z,9.4
2022-12-23T09:51:48.748Z,9.4
2022-12-23T09:52:50.161Z,9.4
2022-12-23T09:53:51.406Z,9.4
2022-12-23T09:54:52.582Z,9.4
2022-12-23T09:55:53.599Z,9.4
2022-12-23T09:56:54.995Z,9.4
2022-12-23T09:57:56.437Z,9.4
2022-12-23T09:58:57.560Z,9.4
2022-12-23T09:59:58.971Z,9.4
2022-12-23T10:01:00.142Z,9.4
2022-12-23T10:02:01.322Z,9.4
2022-12-23T10:03:03.374Z,9.4
2022-12-23T10:04:05.808Z,9.4
2022-12-23T10:05:06.941Z,9.4
2022-12-23T10:06:08.172Z,9.4
2022-12-23T10:07:09.574Z,9.4
2022-12-23T10:08:10.498Z,9.3
2022-12-23T10:09:11.670Z,9.3
2022-12-23T10:10:13.091Z,9.3
2022-12-23T10:11:14.245Z,9.3
2022-12-23T10:12:15.135Z,9.3
2022-12-23T10:13:16.121Z,9.3
2022-12-23T10:14:17.231Z,9.3
2022-12-23T10:15:18.134Z,9.3
2022-12-23T10:16:19.501Z,9.3
2022-12-23T10:17:20.942Z,9.3
2022-12-23T10:18:22.370Z,9.3
2022-12-23T10:19:23.773Z,9.2
2022-12-23T10:20:25.184Z,9.2
2022-12-23T10:21:27.199Z,9.2
2022-12-23T10:22:28.365Z,9.2
2022-12-23T10:23:29.485Z,9.2
2022-12-23T10:24:30.612Z,9.2
2022-12-23T10:25:31.457Z,9.1
2022-12-23T10:26:32.634Z,9.1
2022-12-23T10:27:33.519Z,9.1
2022-12-23T10:28:34.765Z,9.2
2022-12-23T10:29:35.373Z,9.1
2022-12-23T10:31:10.814Z,9.1
2022-12-23T10:32:41.797Z,9.1
2022-12-23T10:33:43.475Z,9.1
2022-12-23T10:34:44.629Z,9.1
2022-12-23T10:35:46.039Z,9.1
2022-12-23T10:36:47.480Z,9.1
2022-12-23T10:37:49.568Z,9.2
2022-12-23T10:38:51.024Z,9.2
2022-12-23T10:39:51.865Z,9.2
2022-12-23T10:40:53.755Z,9.2
2022-12-23T10:41:54.654Z,9.2
2022-12-23T10:42:55.547Z,9.3
2022-12-23T10:43:56.549Z,9.3
2022-12-23T10:44:57.668Z,9.3
2022-12-23T10:45:58.589Z,9.4
2022-12-23T10:46:59.781Z,9.4
2022-12-23T10:48:01.483Z,9.5
2022-12-23T10:49:02.615Z,9.5
2022-12-23T10:50:03.770Z,9.5
2022-12-23T10:51:04.939Z,9.5
2022-12-23T10:52:06.115Z,9.6
2022-12-23T10:53:07.209Z,9.6
2022-12-23T10:54:08.632Z,9.6
2022-12-23T10:55:10.043Z,9.6
2022-12-23T10:56:10.949Z,9.7
2022-12-23T10:57:12.120Z,9.7
2022-12-23T10:58:13.229Z,9.7
2022-12-23T10:59:14.674Z,9.8
2022-12-23T11:00:15.609Z,9.8
2022-12-23T11:01:25.935Z,9.8
2022-12-23T11:02:29.486Z,9.9
2022-12-23T11:03:31.911Z,9.9
2022-12-23T11:04:33.882Z,10
2022-12-23T11:05:35.018Z,10
2022-12-23T11:06:37.931Z,10.1
2022-12-23T11:07:44.423Z,10.1
2022-12-23T11:08:47.822Z,10.2
2022-12-23T11:09:49.583Z,10.3
2022-12-23T11:10:50.962Z,10.3
2022-12-23T11:11:52.183Z,10.3
2022-12-23T11:12:54.386Z,10.3
2022-12-23T11:13:55.509Z,10.3
2022-12-23T11:14:56.763Z,10.3
2022-12-23T11:15:58.183Z,10.3
2022-12-23T11:16:59.744Z,10.3
2022-12-23T11:18:01.347Z,10.2
2022-12-23T11:19:02.791Z,10.2
2022-12-23T11:20:04.035Z,10.2
2022-12-23T11:21:04.960Z,10.2
2022-12-23T11:22:06.390Z,10.1
2022-12-23T11:23:07.801Z,10.1
2022-12-23T11:24:08.716Z,10.1
2022-12-23T11:25:09.636Z,10
2022-12-23T11:26:10.536Z,10
2022-12-23T11:27:11.958Z,10
2022-12-23T11:28:13.400Z,10
2022-12-23T11:29:14.313Z,10
2022-12-23T11:30:15.305Z,10
2022-12-23T11:31:16.273Z,10
2022-12-23T11:32:17.665Z,10
2022-12-23T11:33:19.112Z,10
2022-12-23T11:34:20.509Z,10
2022-12-23T11:35:21.954Z,10
2022-12-23T11:36:23.235Z,10
2022-12-23T11:37:24.653Z,10
2022-12-23T11:38:25.808Z,10
2022-12-23T11:39:26.995Z,10
2022-12-23T11:40:27.892Z,10.1
2022-12-23T11:41:29.308Z,10.1
2022-12-23T11:42:30.218Z,10.1
2022-12-23T11:43:31.128Z,10.1
2022-12-23T11:44:32.530Z,10.2
2022-12-23T11:45:33.992Z,10.2
2022-12-23T11:46:34.844Z,10.2
2022-12-23T11:47:37.440Z,10.2
2022-12-23T11:48:38.368Z,10.2
2022-12-23T11:49:39.770Z,10.3
2022-12-23T11:50:41.758Z,10.3
2022-12-23T11:51:43.172Z,10.3
2022-12-23T11:52:44.589Z,10.3
2022-12-23T11:53:45.753Z,10.4
2022-12-23T11:54:51.121Z,10.4
2022-12-23T11:55:55.737Z,10.4
2022-12-23T11:56:56.931Z,10.4
2022-12-23T11:57:58.407Z,10.4
2022-12-23T11:58:59.846Z,10.4
2022-12-23T12:00:00.462Z,10.5
2022-12-23T12:01:01.399Z,10.5
2022-12-23T12:02:02.584Z,10.5
2022-12-23T12:03:04.040Z,10.5
2022-12-23T12:04:05.581Z,10.6
2022-12-23T12:05:06.707Z,10.6
2022-12-23T12:06:07.580Z,10.6
2022-12-23T12:07:08.980Z,10.6
2022-12-23T12:08:10.404Z,10.6
2022-12-23T12:09:11.832Z,10.7
2022-12-23T12:10:13.240Z,10.7
2022-12-23T12:11:14.413Z,10.8
2022-12-23T12:12:15.795Z,10.8
2022-12-23T12:13:16.935Z,10.8
2022-12-23T12:14:18.085Z,10.9
2022-12-23T12:15:19.480Z,10.9
2022-12-23T12:16:20.705Z,10.9
2022-12-23T12:17:22.416Z,10.9
2022-12-23T12:18:23.816Z,11
2022-12-23T12:19:25.000Z,11
2022-12-23T12:20:26.453Z,11
2022-12-23T12:21:27.279Z,11
2022-12-23T12:22:28.437Z,11
2022-12-23T12:23:29.329Z,11
2022-12-23T12:24:31.031Z,11
2022-12-23T12:25:35.084Z,11
2022-12-23T12:26:41.781Z,11
2022-12-23T12:27:42.917Z,11
2022-12-23T12:28:44.122Z,11
2022-12-23T12:29:45.556Z,11.1
2022-12-23T12:30:47.005Z,11
2022-12-23T12:31:49.243Z,11
2022-12-23T12:32:50.148Z,11
2022-12-23T12:33:51.319Z,11
2022-12-23T12:34:53.696Z,11
2022-12-23T12:35:57.845Z,11
2022-12-23T12:37:06.199Z,11
2022-12-23T12:38:07.373Z,10.9
2022-12-23T12:39:08.786Z,10.9
2022-12-23T12:40:10.245Z,10.9
2022-12-23T12:41:11.406Z,10.9
2022-12-23T12:42:12.316Z,10.9
2022-12-23T12:43:13.730Z,10.9
2022-12-23T12:44:15.136Z,10.9
2022-12-23T12:45:16.287Z,10.9
2022-12-23T12:46:17.528Z,10.9
2022-12-23T12:47:45.101Z,10.9
2022-12-23T12:49:02.454Z,10.9
2022-12-23T12:50:03.925Z,10.9
2022-12-23T12:51:05.311Z,10.9
2022-12-23T12:52:06.713Z,10.9
2022-12-23T12:53:07.611Z,10.9
2022-12-23T12:54:09.026Z,10.9
2022-12-23T12:55:10.449Z,10.9
2022-12-23T12:56:11.590Z,10.8
2022-12-23T12:57:12.776Z,10.8
2022-12-23T12:58:14.185Z,10.8
2022-12-23T12:59:15.086Z,10.8
2022-12-23T13:00:16.267Z,10.8
2022-12-23T13:01:17.470Z,10.8
2022-12-23T13:02:18.532Z,10.8
2022-12-23T13:03:20.180Z,10.8
2022-12-23T13:04:21.349Z,10.7
2022-12-23T13:05:22.199Z,10.7
2022-12-23T13:06:23.617Z,10.7
2022-12-23T13:07:24.788Z,10.7
2022-12-23T13:08:25.930Z,10.7
2022-12-23T13:09:26.778Z,10.7
2022-12-23T13:10:28.194Z,10.7
2022-12-23T13:11:29.634Z,10.7
2022-12-23T13:12:30.748Z,10.7
2022-12-23T13:13:31.883Z,10.7
2022-12-23T13:14:33.307Z,10.7
2022-12-23T13:15:34.497Z,10.7
2022-12-23T13:16:35.475Z,10.7
2022-12-23T13:17:37.047Z,10.6
2022-12-23T13:18:38.497Z,10.6
2022-12-23T13:19:39.882Z,10.6
2022-12-23T13:20:41.060Z,10.6
2022-12-23T13:21:41.980Z,10.6
2022-12-23T13:22:42.821Z,10.6
2022-12-23T13:23:44.933Z,10.5
2022-12-23T13:24:46.824Z,10.6
2022-12-23T13:25:48.680Z,10.5
2022-12-23T13:26:49.817Z,10.5
2022-12-23T13:27:51.238Z,10.5
2022-12-23T13:28:52.365Z,10.5
2022-12-23T13:29:57.931Z,10.5
2022-12-23T13:30:59.841Z,10.5
2022-12-23T13:32:01.529Z,10.5
2022-12-23T13:33:02.653Z,10.5
2022-12-23T13:34:04.103Z,10.4
2022-12-23T13:35:05.213Z,10.4
2022-12-23T13:36:06.960Z,10.4
2022-12-23T13:37:08.846Z,10.4
2022-12-23T13:38:10.239Z,10.4
2022-12-23T13:39:11.668Z,10.4
2022-12-23T13:40:13.088Z,10.4
2022-12-23T13:41:14.210Z,10.3
2022-12-23T13:42:15.653Z,10.3
2022-12-23T13:43:17.040Z,10.3
2022-12-23T13:44:18.507Z,10.3
2022-12-23T13:45:19.540Z,10.3
2022-12-23T13:46:20.747Z,10.3
2022-12-23T13:47:21.923Z,10.2
2022-12-23T13:48:23.036Z,10.2
2022-12-23T13:49:23.809Z,10.2
2022-12-23T13:50:25.285Z,10.2
2022-12-23T13:51:26.197Z,10.2
2022-12-23T13:52:27.344Z,10.2
2022-12-23T13:53:28.751Z,10.2
2022-12-23T13:54:30.171Z,10.1
2022-12-23T13:55:31.307Z,10.1
2022-12-23T13:56:32.216Z,10.1
2022-12-23T13:57:33.396Z,10.1
2022-12-23T13:58:34.770Z,10.1
2022-12-23T13:59:37.344Z,10.1
2022-12-23T14:00:38.533Z,10.1
2022-12-23T14:01:40.123Z,10
2022-12-23T14:02:42.668Z,10
2022-12-23T14:03:44.364Z,10
2022-12-23T14:04:45.509Z,10
2022-12-23T14:05:46.377Z,9.9
2022-12-23T14:06:48.761Z,9.9
2022-12-23T14:07:50.201Z,9.8
2022-12-23T14:08:51.589Z,9.8
2022-12-23T14:09:53.016Z,9.8
2022-12-23T14:10:54.454Z,9.8
2022-12-23T14:11:58.295Z,9.8
2022-12-23T14:13:05.649Z,9.7